createdAt,value
2023-02-07T00:01:35.836Z,-1.40
2023-02-07T00:04:04.708Z,-1.40
2023-02-07T00:06:35.129Z,-1.40
2023-02-07T00:09:05.369Z,-1.50
2023-02-07T00:11:34.399Z,-1.50
2023-02-07T00:14:02.676Z,-1.50
2023-02-07T00:16:30.924Z,-0.90
2023-02-07T00:19:00.670Z,-1.50
2023-02-07T00:21:29.967Z,-1.40
2023-02-07T00:23:58.877Z,-1.40
2023-02-07T00:26:28.684Z,-1.50
2023-02-07T00:28:57.761Z,-1.50
2023-02-07T00:31:27.970Z,-1.40
2023-02-07T00:33:58.115Z,-1.40
2023-02-07T00:36:29.733Z,-1.40
2023-02-07T00:38:58.866Z,-1.50
2023-02-07T00:41:27.292Z,-1.70
2023-02-07T00:43:55.857Z,-1.50
2023-02-07T00:46:24.229Z,-1.50
2023-02-07T00:48:52.562Z,-1.50
2023-02-07T00:51:20.886Z,-1.60
2023-02-07T00:53:50.474Z,-1.50
2023-02-07T00:56:18.732Z,-1.50
2023-02-07T00:58:46.935Z,-1.50
2023-02-07T01:01:15.615Z,-1.40
2023-02-07T01:03:43.929Z,-1.40
2023-02-07T01:06:12.440Z,-1.50
2023-02-07T01:08:41.019Z,-1.50
2023-02-07T01:11:14.870Z,-1.60
2023-02-07T01:13:44.668Z,-1.60
2023-02-07T01:16:19.925Z,-1.50
2023-02-07T01:18:48.562Z,-1.60
2023-02-07T01:21:17.759Z,-1.50
2023-02-07T01:23:45.974Z,-1.70
2023-02-07T01:26:15.662Z,-1.70
2023-02-07T01:28:43.945Z,-1.70
2023-02-07T01:31:14.163Z,-1.80
2023-02-07T01:33:42.438Z,-1.80
2023-02-07T01:36:12.914Z,-1.80
2023-02-07T01:38:41.182Z,-1.80
2023-02-07T01:41:09.403Z,-1.80
2023-02-07T01:44:01.341Z,-1.90
2023-02-07T01:46:29.861Z,-2.00
2023-02-07T01:49:01.422Z,-1.50
2023-02-07T01:51:32.661Z,-2.00
2023-02-07T01:54:03.379Z,-1.80
2023-02-07T01:56:32.898Z,-1.90
2023-02-07T01:59:04.513Z,-1.90
2023-02-07T02:01:32.598Z,-2.00
2023-02-07T02:04:00.867Z,-2.00
2023-02-07T02:06:32.761Z,-2.00
2023-02-07T02:09:02.791Z,-2.00
2023-02-07T02:12:06.715Z,-1.40
2023-02-07T02:14:52.611Z,-2.00
2023-02-07T02:17:29.784Z,-2.00
2023-02-07T02:20:44.384Z,-2.10
2023-02-07T02:23:21.839Z,-2.00
2023-02-07T02:26:08.711Z,-2.10
2023-02-07T02:29:21.511Z,-2.10
2023-02-07T02:32:10.891Z,-2.20
2023-02-07T02:34:47.284Z,-2.20
2023-02-07T02:37:24.379Z,-2.20
2023-02-07T02:40:00.546Z,-2.30
2023-02-07T02:42:36.049Z,-2.30
2023-02-07T02:45:11.239Z,-2.30
2023-02-07T02:47:44.202Z,-2.30
2023-02-07T02:50:16.137Z,-2.30
2023-02-07T02:52:50.629Z,-2.30
2023-02-07T02:55:23.475Z,-2.20
2023-02-07T02:58:04.371Z,-2.20
2023-02-07T03:00:52.420Z,-2.20
2023-02-07T03:04:01.484Z,-1.80
2023-02-07T03:06:43.128Z,-2.30
2023-02-07T03:09:21.374Z,-2.30
2023-02-07T03:11:57.499Z,-2.30
2023-02-07T03:14:35.817Z,-2.40
2023-02-07T03:17:15.199Z,-2.40
2023-02-07T03:19:51.041Z,-2.50
2023-02-07T03:22:23.520Z,-2.50
2023-02-07T03:24:54.937Z,-2.50
2023-02-07T03:27:24.623Z,-2.40
2023-02-07T03:29:57.956Z,-2.50
2023-02-07T03:32:31.395Z,-2.50
2023-02-07T03:35:04.628Z,-2.50
2023-02-07T03:37:37.705Z,-2.30
2023-02-07T03:40:07.194Z,-2.40
2023-02-07T03:42:39.471Z,-2.40
2023-02-07T03:45:13.647Z,-2.40
2023-02-07T03:47:42.103Z,-2.50
2023-02-07T03:50:11.173Z,-2.40
2023-02-07T03:52:40.959Z,-2.50
2023-02-07T03:55:09.775Z,-2.50
2023-02-07T03:57:38.738Z,-2.50
2023-02-07T04:00:08.290Z,-2.50
2023-02-07T04:02:36.529Z,-2.50
2023-02-07T04:05:04.922Z,-2.60
2023-02-07T04:07:33.163Z,-2.60
2023-02-07T04:10:03.501Z,-2.50
2023-02-07T04:12:33.000Z,-2.50
2023-02-07T04:15:01.596Z,-2.60
2023-02-07T04:17:31.475Z,-2.40
2023-02-07T04:20:01.693Z,-2.50
2023-02-07T04:22:30.463Z,-2.50
2023-02-07T04:24:59.206Z,-2.60
2023-02-07T04:27:28.867Z,-2.60
2023-02-07T04:29:58.147Z,-2.60
2023-02-07T04:32:26.387Z,-2.60
2023-02-07T04:34:54.596Z,-2.60
2023-02-07T04:37:22.852Z,-2.70
2023-02-07T04:39:51.049Z,-2.60
2023-02-07T04:42:19.329Z,-2.60
2023-02-07T04:44:48.961Z,-2.60
2023-02-07T04:47:17.187Z,-2.70
2023-02-07T04:49:45.420Z,-2.70
2023-02-07T04:52:13.611Z,-2.70
2023-02-07T04:54:41.870Z,-2.70
2023-02-07T04:57:10.165Z,-2.70
2023-02-07T04:59:38.425Z,-2.70
2023-02-07T05:02:08.106Z,-2.70
2023-02-07T05:04:36.426Z,-2.70
2023-02-07T05:07:04.654Z,-2.60
2023-02-07T05:09:32.838Z,-2.50
2023-02-07T05:12:01.175Z,-2.50
2023-02-07T05:14:29.439Z,-2.60
2023-02-07T05:16:57.792Z,-2.60
2023-02-07T05:19:27.446Z,-2.70
2023-02-07T05:21:55.694Z,-1.60
2023-02-07T05:24:23.897Z,-2.70
2023-02-07T05:26:52.123Z,-2.80
2023-02-07T05:29:20.330Z,-2.90
2023-02-07T05:32:20.482Z,-2.90
2023-02-07T05:34:50.104Z,-2.90
2023-02-07T05:37:18.392Z,-2.80
2023-02-07T05:39:46.645Z,-2.80
2023-02-07T05:42:14.831Z,-3.00
2023-02-07T05:44:43.056Z,-2.90
2023-02-07T05:47:11.260Z,-3.00
2023-02-07T05:49:40.081Z,-3.00
2023-02-07T05:52:09.875Z,-2.80
2023-02-07T05:54:38.092Z,-2.90
2023-02-07T05:57:06.420Z,-2.90
2023-02-07T05:59:34.894Z,-3.10
2023-02-07T06:02:03.155Z,-3.20
2023-02-07T06:04:31.338Z,-3.20
2023-02-07T06:06:59.605Z,-3.20
2023-02-07T06:09:29.263Z,-3.20
2023-02-07T06:11:57.483Z,-3.20
2023-02-07T06:14:25.764Z,-3.20
2023-02-07T06:16:53.991Z,-3.20
2023-02-07T06:19:22.223Z,-3.30
2023-02-07T06:21:50.428Z,-3.20
2023-02-07T06:24:18.769Z,-3.20
2023-02-07T06:26:48.365Z,-3.10
2023-02-07T06:29:16.804Z,-3.00
2023-02-07T06:31:45.073Z,-3.10
2023-02-07T06:34:13.323Z,-3.10
2023-02-07T06:36:41.525Z,-3.20
2023-02-07T06:39:09.823Z,-3.20
2023-02-07T06:41:38.096Z,-3.10
2023-02-07T06:44:07.838Z,-3.10
2023-02-07T06:46:36.309Z,-3.10
2023-02-07T06:49:04.750Z,-3.10
2023-02-07T06:51:32.962Z,-3.20
2023-02-07T06:54:03.398Z,-3.10
2023-02-07T06:56:31.650Z,-3.10
2023-02-07T06:58:59.868Z,-3.10
2023-02-07T07:01:29.693Z,-3.10
2023-02-07T07:03:57.924Z,-2.80
2023-02-07T07:06:26.295Z,-3.00
2023-02-07T07:08:54.550Z,-2.80
2023-02-07T07:11:22.764Z,-2.90
2023-02-07T07:13:51.050Z,-2.90
2023-02-07T07:16:19.378Z,-2.90
2023-02-07T07:18:49.030Z,-2.90
2023-02-07T07:21:17.243Z,-2.60
2023-02-07T07:23:45.460Z,-2.10
2023-02-07T07:26:13.666Z,-2.40
2023-02-07T07:28:41.901Z,-2.40
2023-02-07T07:31:10.442Z,-2.30
2023-02-07T07:33:38.972Z,-1.30
2023-02-07T07:36:10.018Z,-0.10
2023-02-07T07:38:38.644Z,1.30
2023-02-07T07:41:07.235Z,2.30
2023-02-07T07:43:35.605Z,3.30
2023-02-07T07:46:03.947Z,4.10
2023-02-07T07:48:32.692Z,4.80
2023-02-07T07:51:00.976Z,5.60
2023-02-07T07:53:30.591Z,5.80
2023-02-07T07:55:59.172Z,6.20
2023-02-07T07:58:28.930Z,6.70
2023-02-07T08:00:57.505Z,6.00
2023-02-07T08:03:25.977Z,5.60
2023-02-07T08:05:54.859Z,6.50
2023-02-07T08:08:23.080Z,6.90
2023-02-07T08:10:52.698Z,7.40
2023-02-07T08:13:21.582Z,7.50
2023-02-07T08:15:49.834Z,7.60
2023-02-07T08:18:18.068Z,8.00
2023-02-07T08:20:46.266Z,8.20
2023-02-07T08:23:14.478Z,8.30
2023-02-07T08:25:43.029Z,8.40
2023-02-07T08:28:12.774Z,8.90
2023-02-07T08:30:41.242Z,8.90
2023-02-07T08:33:09.751Z,9.30
2023-02-07T08:35:38.285Z,9.50
2023-02-07T08:38:06.546Z,9.80
2023-02-07T08:40:35.195Z,10.40
2023-02-07T08:43:06.785Z,11.00
2023-02-07T08:45:36.566Z,11.60
2023-02-07T08:48:05.149Z,12.00
2023-02-07T08:50:33.339Z,12.70
2023-02-07T08:53:01.693Z,13.00
2023-02-07T08:55:30.700Z,13.50
2023-02-07T08:57:59.107Z,13.80
2023-02-07T09:00:27.369Z,14.20
2023-02-07T09:02:57.126Z,14.80
2023-02-07T09:05:25.375Z,15.60
2023-02-07T09:07:53.565Z,16.50
2023-02-07T09:10:21.955Z,17.20
2023-02-07T09:12:50.160Z,18.10
2023-02-07T09:15:18.422Z,19.00
2023-02-07T09:17:46.685Z,19.50
2023-02-07T09:20:16.531Z,20.40
2023-02-07T09:23:02.358Z,21.10
2023-02-07T09:25:30.562Z,21.10
2023-02-07T09:27:58.856Z,21.70
2023-02-07T09:30:27.141Z,22.10
2023-02-07T09:32:55.445Z,22.40
2023-02-07T09:35:25.098Z,23.00
2023-02-07T09:37:55.273Z,23.60
2023-02-07T09:40:24.279Z,23.90
2023-02-07T09:42:58.368Z,24.30
2023-02-07T09:45:30.864Z,24.70
2023-02-07T09:48:05.518Z,24.30
2023-02-07T09:50:40.265Z,23.40
2023-02-07T09:53:16.339Z,24.00
2023-02-07T09:55:48.638Z,24.30
2023-02-07T09:58:24.949Z,24.20
2023-02-07T10:01:01.145Z,24.70
2023-02-07T10:03:29.778Z,25.00
2023-02-07T10:06:12.669Z,24.80
2023-02-07T10:08:46.619Z,24.70
2023-02-07T10:11:21.526Z,25.00
2023-02-07T10:14:05.459Z,25.80
2023-02-07T10:16:47.840Z,25.60
2023-02-07T10:19:26.115Z,25.70
2023-02-07T10:22:03.469Z,25.70
2023-02-07T10:24:58.301Z,25.50
2023-02-07T10:27:32.013Z,25.40
2023-02-07T10:30:09.562Z,25.00
2023-02-07T10:32:40.093Z,23.70
2023-02-07T10:35:18.518Z,24.00
2023-02-07T10:37:51.485Z,23.60
2023-02-07T10:40:25.512Z,22.70
2023-02-07T10:42:59.849Z,22.90
2023-02-07T10:45:28.170Z,23.00
2023-02-07T10:47:58.108Z,23.50
2023-02-07T10:50:41.643Z,24.20
2023-02-07T10:53:11.367Z,24.10
2023-02-07T10:55:43.349Z,24.00
2023-02-07T10:58:23.241Z,23.60
2023-02-07T11:00:53.786Z,23.40
2023-02-07T11:03:23.218Z,22.00
2023-02-07T11:05:57.754Z,21.10
2023-02-07T11:08:29.590Z,21.10
2023-02-07T11:10:59.729Z,21.40
2023-02-07T11:13:29.867Z,21.80
2023-02-07T11:16:04.069Z,22.50
2023-02-07T11:18:43.515Z,23.20
2023-02-07T11:21:27.260Z,23.60
2023-02-07T11:24:01.356Z,23.50
2023-02-07T11:26:31.095Z,21.90
2023-02-07T11:29:07.969Z,22.10
2023-02-07T11:31:38.879Z,22.80
2023-02-07T11:34:22.124Z,23.30
2023-02-07T11:36:50.335Z,22.10
2023-02-07T11:39:22.862Z,22.40
2023-02-07T11:42:01.082Z,22.70
2023-02-07T11:44:30.877Z,22.10
2023-02-07T11:47:04.498Z,22.40
2023-02-07T11:49:43.374Z,22.80
2023-02-07T11:52:12.210Z,22.60
2023-02-07T11:54:44.073Z,22.50
2023-02-07T11:57:15.112Z,22.50
2023-02-07T11:59:48.620Z,22.20
2023-02-07T12:02:21.223Z,22.80
2023-02-07T12:04:50.211Z,22.20
2023-02-07T12:07:25.512Z,22.00
2023-02-07T12:09:57.512Z,22.20
2023-02-07T12:12:35.379Z,22.00
2023-02-07T12:15:08.441Z,21.70
2023-02-07T12:17:42.568Z,21.00
2023-02-07T12:20:21.586Z,19.30
2023-02-07T12:23:07.746Z,19.40
2023-02-07T12:25:48.116Z,19.40
2023-02-07T12:28:26.336Z,19.30
2023-02-07T12:30:58.906Z,19.30
2023-02-07T12:33:36.275Z,20.00
2023-02-07T12:36:12.094Z,19.90
2023-02-07T12:38:48.321Z,19.60
2023-02-07T12:41:24.489Z,19.00
2023-02-07T12:44:03.662Z,19.30
2023-02-07T12:46:42.920Z,19.80
2023-02-07T12:49:29.629Z,19.60
2023-02-07T12:52:15.989Z,19.90
2023-02-07T12:54:54.764Z,19.80
2023-02-07T12:57:30.859Z,19.60
2023-02-07T13:00:06.229Z,19.70
2023-02-07T13:02:41.680Z,19.70
2023-02-07T13:05:40.456Z,19.70
2023-02-07T13:08:19.565Z,19.90
2023-02-07T13:10:57.656Z,19.70
2023-02-07T13:13:32.329Z,19.40
2023-02-07T13:16:06.492Z,19.60
2023-02-07T13:18:47.468Z,19.40
2023-02-07T13:21:24.346Z,19.60
2023-02-07T13:23:52.542Z,19.60
2023-02-07T13:26:25.064Z,19.50
2023-02-07T13:28:57.674Z,19.20
2023-02-07T13:31:32.862Z,18.60
2023-02-07T13:34:02.384Z,18.60
2023-02-07T13:36:39.861Z,18.80
2023-02-07T13:39:21.124Z,19.00
2023-02-07T13:42:02.991Z,18.70
2023-02-07T13:44:40.247Z,17.70
2023-02-07T13:47:40.588Z,17.80
2023-02-07T13:50:24.931Z,17.50
2023-02-07T13:53:02.724Z,17.80
2023-02-07T13:55:38.098Z,18.10
2023-02-07T13:58:24.004Z,18.20
2023-02-07T14:01:11.717Z,18.00
2023-02-07T14:03:40.214Z,18.20
2023-02-07T14:06:18.410Z,17.90
2023-02-07T14:08:46.875Z,18.30
2023-02-07T14:11:35.434Z,18.00
2023-02-07T14:14:26.040Z,18.30
2023-02-07T14:16:58.689Z,18.40
2023-02-07T14:20:05.305Z,19.00
2023-02-07T14:22:54.244Z,19.60
2023-02-07T14:25:39.248Z,19.70
2023-02-07T14:28:32.694Z,19.50
2023-02-07T14:31:08.751Z,19.30
2023-02-07T14:33:40.277Z,18.00
2023-02-07T14:36:26.334Z,18.20
2023-02-07T14:39:22.107Z,17.90
2023-02-07T14:41:52.686Z,17.60
2023-02-07T14:44:28.478Z,17.70
2023-02-07T14:46:59.142Z,18.20
2023-02-07T14:49:34.381Z,18.00
2023-02-07T14:52:07.996Z,17.80
2023-02-07T14:54:44.025Z,17.90
2023-02-07T14:57:25.836Z,17.60
2023-02-07T15:00:01.660Z,17.70
2023-02-07T15:02:32.499Z,17.50
2023-02-07T15:05:19.120Z,17.30
2023-02-07T15:07:48.267Z,17.70
2023-02-07T15:10:18.566Z,17.40
2023-02-07T15:12:47.116Z,16.70
2023-02-07T15:15:21.870Z,15.70
2023-02-07T15:17:51.339Z,15.20
2023-02-07T15:20:24.540Z,15.30
2023-02-07T15:22:55.973Z,14.00
2023-02-07T15:25:25.024Z,14.10
2023-02-07T15:28:06.609Z,13.80
2023-02-07T15:30:37.875Z,13.30
2023-02-07T15:33:13.293Z,13.10
2023-02-07T15:35:42.900Z,12.80
2023-02-07T15:38:19.066Z,12.70
2023-02-07T15:40:47.292Z,12.50
2023-02-07T15:43:26.284Z,12.60
2023-02-07T15:46:03.215Z,12.10
2023-02-07T15:48:31.483Z,11.40
2023-02-07T15:51:04.932Z,11.10
2023-02-07T15:53:33.433Z,10.90
2023-02-07T15:56:01.720Z,10.90
2023-02-07T15:58:35.423Z,10.60
2023-02-07T16:01:05.712Z,10.30
2023-02-07T16:03:37.844Z,10.00
2023-02-07T16:06:14.759Z,9.20
2023-02-07T16:08:44.941Z,8.50
2023-02-07T16:11:21.221Z,8.20
2023-02-07T16:13:53.498Z,7.80
2023-02-07T16:16:26.247Z,7.20
2023-02-07T16:19:06.134Z,6.90
2023-02-07T16:21:37.607Z,6.40
2023-02-07T16:24:09.548Z,5.90
2023-02-07T16:26:38.825Z,5.50
2023-02-07T16:29:07.587Z,5.40
2023-02-07T16:31:36.652Z,5.20
2023-02-07T16:34:04.968Z,5.00
2023-02-07T16:36:33.202Z,4.80
2023-02-07T16:39:02.879Z,4.30
2023-02-07T16:41:34.205Z,4.00
2023-02-07T16:44:05.784Z,3.90
2023-02-07T16:46:34.226Z,3.70
2023-02-07T16:49:02.601Z,3.60
2023-02-07T16:51:30.823Z,3.40
2023-02-07T16:53:59.046Z,3.30
2023-02-07T16:56:29.511Z,3.10
2023-02-07T16:58:57.703Z,3.00
2023-02-07T17:01:25.997Z,2.80
2023-02-07T17:03:54.258Z,2.70
2023-02-07T17:06:24.197Z,2.60
2023-02-07T17:08:54.388Z,2.50
2023-02-07T17:11:25.968Z,2.40
2023-02-07T17:13:56.942Z,2.30
2023-02-07T17:16:26.663Z,2.30
2023-02-07T17:18:55.012Z,2.10
2023-02-07T17:21:23.828Z,2.10
2023-02-07T17:23:52.151Z,1.90
2023-02-07T17:26:24.962Z,1.80
2023-02-07T17:28:53.575Z,1.80
2023-02-07T17:31:24.133Z,1.60
2023-02-07T17:33:52.743Z,1.60
2023-02-07T17:36:21.307Z,1.40
2023-02-07T17:38:49.527Z,1.40
2023-02-07T17:41:20.084Z,1.30
2023-02-07T17:43:48.391Z,1.20
2023-02-07T17:46:18.989Z,1.10
2023-02-07T17:48:49.485Z,1.10
2023-02-07T17:51:18.248Z,1.00
2023-02-07T17:53:46.689Z,0.90
2023-02-07T17:56:22.229Z,0.80
2023-02-07T17:58:50.457Z,0.80
2023-02-07T18:01:19.455Z,0.80
2023-02-07T18:03:49.813Z,0.80
2023-02-07T18:06:19.706Z,0.70
2023-02-07T18:08:48.329Z,0.70
2023-02-07T18:11:16.905Z,0.60
2023-02-07T18:13:46.708Z,0.60
2023-02-07T18:16:15.925Z,0.60
2023-02-07T18:18:44.279Z,0.60
2023-02-07T18:21:13.895Z,0.50
2023-02-07T18:23:43.446Z,0.40
2023-02-07T18:26:12.588Z,0.50
2023-02-07T18:28:40.793Z,0.40
2023-02-07T18:31:13.321Z,0.30
2023-02-07T18:33:41.803Z,0.40
2023-02-07T18:36:11.219Z,0.40
2023-02-07T18:38:41.070Z,0.30
2023-02-07T18:41:10.056Z,0.30
2023-02-07T18:43:38.569Z,0.30
2023-02-07T18:46:10.252Z,0.20
2023-02-07T18:48:38.281Z,0.20
2023-02-07T18:51:07.519Z,0.20
2023-02-07T18:53:35.837Z,0.10
2023-02-07T18:56:06.623Z,0.10
2023-02-07T18:58:35.225Z,0.00
2023-02-07T19:01:05.242Z,-0.10
2023-02-07T19:03:33.733Z,-0.20
2023-02-07T19:06:03.398Z,-0.20
2023-02-07T19:08:31.713Z,-0.20
2023-02-07T19:11:02.585Z,-0.20
2023-02-07T19:13:32.991Z,-0.10
2023-02-07T19:16:04.993Z,-0.30
2023-02-07T19:18:33.506Z,-0.40
2023-02-07T19:21:05.278Z,-0.40
2023-02-07T19:23:33.778Z,-0.30
2023-02-07T19:26:02.791Z,-0.40
2023-02-07T19:28:32.755Z,-0.40
2023-02-07T19:31:03.252Z,-0.50
2023-02-07T19:33:31.650Z,-0.50
2023-02-07T19:36:05.769Z,-0.50
2023-02-07T19:38:34.587Z,-0.60
2023-02-07T19:41:03.287Z,-0.50
2023-02-07T19:43:33.201Z,-0.50
2023-02-07T19:46:01.811Z,-0.50
2023-02-07T19:48:30.207Z,-0.60
2023-02-07T19:51:02.219Z,-0.50
2023-02-07T19:53:31.302Z,-0.50
2023-02-07T19:56:03.190Z,-0.60
2023-02-07T19:58:34.975Z,-0.60
2023-02-07T20:01:03.407Z,-0.70
2023-02-07T20:03:31.622Z,-0.60
2023-02-07T20:06:01.597Z,-0.60
2023-02-07T20:08:33.940Z,-0.60
2023-02-07T20:11:05.906Z,-0.60
2023-02-07T20:13:36.374Z,-0.60
2023-02-07T20:16:05.511Z,-0.60
2023-02-07T20:18:33.734Z,-0.60
2023-02-07T20:21:10.935Z,-0.60
2023-02-07T20:23:41.669Z,-0.60
2023-02-07T20:26:12.106Z,-0.50
2023-02-07T20:28:41.838Z,-0.50
2023-02-07T20:31:11.706Z,-0.60
2023-02-07T20:33:43.575Z,-0.60
2023-02-07T20:36:12.995Z,-0.60
2023-02-07T20:38:41.268Z,-0.50
2023-02-07T20:41:11.289Z,-0.40
2023-02-07T20:43:42.570Z,-0.50
2023-02-07T20:46:13.473Z,-0.30
2023-02-07T20:48:42.247Z,-0.30
2023-02-07T20:51:11.602Z,-0.40
2023-02-07T20:53:41.609Z,-0.30
2023-02-07T20:56:11.882Z,-0.30
2023-02-07T20:58:42.113Z,-0.30
2023-02-07T21:01:12.332Z,-0.20
2023-02-07T21:03:41.392Z,-0.20
2023-02-07T21:06:10.536Z,-0.10
2023-02-07T21:08:39.966Z,0.00
2023-02-07T21:11:09.566Z,0.00
2023-02-07T21:13:39.684Z,0.10
2023-02-07T21:16:09.533Z,0.00
2023-02-07T21:18:37.738Z,0.20
2023-02-07T21:21:09.928Z,0.20
2023-02-07T21:23:38.685Z,0.30
2023-02-07T21:26:08.013Z,0.20
2023-02-07T21:28:37.526Z,0.10
2023-02-07T21:31:07.291Z,0.30
2023-02-07T21:33:37.377Z,0.20
2023-02-07T21:36:07.502Z,0.20
2023-02-07T21:38:36.064Z,0.20
2023-02-07T21:41:06.427Z,0.10
2023-02-07T21:43:34.634Z,0.10
2023-02-07T21:46:07.606Z,0.10
2023-02-07T21:48:39.183Z,0.10
2023-02-07T21:51:08.948Z,0.20
2023-02-07T21:53:37.545Z,0.10
2023-02-07T21:56:08.272Z,0.10
2023-02-07T21:58:36.763Z,0.10
2023-02-07T22:01:09.529Z,0.10
2023-02-07T22:03:40.549Z,0.10
2023-02-07T22:06:09.988Z,0.00
2023-02-07T22:08:39.919Z,0.00
2023-02-07T22:11:10.161Z,-0.10
2023-02-07T22:13:40.737Z,0.00
2023-02-07T22:16:09.916Z,-0.10
2023-02-07T22:18:39.862Z,-0.10
2023-02-07T22:21:10.755Z,-0.10
2023-02-07T22:23:38.981Z,-0.30
2023-02-07T22:26:08.108Z,-0.30
2023-02-07T22:28:36.362Z,-0.20
2023-02-07T22:31:10.057Z,-0.30
2023-02-07T22:33:40.967Z,-0.40
2023-02-07T22:36:13.671Z,-0.50
2023-02-07T22:38:42.108Z,-0.50
2023-02-07T22:41:10.385Z,-0.60
2023-02-07T22:43:40.343Z,-0.50
2023-02-07T22:46:12.159Z,-0.70
2023-02-07T22:48:42.064Z,-0.70
2023-02-07T22:51:14.693Z,-0.70
2023-02-07T22:53:43.137Z,-0.80
2023-02-07T22:56:11.516Z,-0.60
2023-02-07T22:58:41.197Z,-0.70
2023-02-07T23:01:19.234Z,-0.70
2023-02-07T23:03:49.273Z,-0.70
2023-02-07T23:06:17.539Z,-0.70
2023-02-07T23:08:45.810Z,-0.60
2023-02-07T23:11:15.244Z,-0.60
2023-02-07T23:13:43.990Z,-0.60
2023-02-07T23:16:13.322Z,-0.60
2023-02-07T23:18:41.790Z,-0.50
2023-02-07T23:21:13.230Z,-0.60
2023-02-07T23:23:42.175Z,-0.60
2023-02-07T23:26:12.035Z,-0.60
2023-02-07T23:28:41.090Z,-0.60
2023-02-07T23:31:11.041Z,-0.60
2023-02-07T23:33:39.623Z,-0.60
2023-02-07T23:36:08.936Z,-0.60
2023-02-07T23:38:38.678Z,-0.80
2023-02-07T23:41:08.344Z,-0.80
2023-02-07T23:43:37.295Z,-0.80
2023-02-07T23:46:06.798Z,-0.80
2023-02-07T23:48:38.402Z,-0.90
2023-02-07T23:51:07.550Z,-0.90
2023-02-07T23:53:36.025Z,-0.90
2023-02-07T23:56:06.749Z,-0.20
2023-02-07T23:58:35.618Z,-0.90
